Time;durP1;ratioP1;P1;durP2;ratioP2;P2;SDS_P1;SDS_P2;PMS_P1;PMS_P2;Temp;Humidity;BMP_temperature;BMP_pressure;BME280_temperature;BME280_humidity;BME280_pressure;Samples;Min_cycle;Max_cycle;Signal;HPM_P1;HPM_P2
2024/04/18 00:02:21;;;;;;;;;;;;;;;;;;5375146;26;19945;-68
2024/04/18 00:04:46;;;;;;;;;;;;;;;;;;5349993;26;19941;-67
2024/04/18 00:07:13;;;;;;;;;;;;;;;;;;5322946;26;19964;-68
2024/04/18 00:09:38;;;;;;;;;;;;;;;;;;5344340;26;20678;-68
2024/04/18 00:12:04;;;;;;;;;;;;;;;;;;5376965;26;19937;-67
2024/04/18 00:14:32;;;;;;;;;;;;;;;;;;5342751;26;19948;-68
2024/04/18 00:17:07;;;;;;;;;;;;;;;;;;5344105;26;19998;-68
2024/04/18 00:20:05;;;;;;;;;;;;;;;;;;5379276;26;20047;-68
2024/04/18 00:22:30;;;;;;;;;;;;;;;;;;5359551;26;19937;-68
2024/04/18 00:24:56;;;;;;;;;;;;;;;;;;5336384;26;19939;-67
2024/04/18 00:27:22;;;;;;;;;;;;;;;;;;5346777;26;19929;-68
2024/04/18 00:29:47;;;;;;;;;;;;;;;;;;5334882;26;20011;-67
2024/04/18 00:32:15;;;;;;;;;;;;;;;;;;5345562;26;20354;-69
2024/04/18 00:34:41;;;;;;;;;;;;;;;;;;5374275;26;19937;-68
2024/04/18 00:37:06;;;;;;;;;;;;;;;;;;5343348;26;21109;-67
2024/04/18 00:39:32;;;;;;;;;;;;;;;;;;5372133;26;20031;-68
2024/04/18 00:41:57;;;;;;;;;;;;;;;;;;5333462;26;19948;-68
2024/04/18 00:44:23;;;;;;;;;;;;;;;;;;5335446;26;20014;-67
2024/04/18 00:46:51;;;;;;;;;;;;;;;;;;5339406;26;20034;-67
2024/04/18 00:49:17;;;;;;;;;;;;;;;;;;5335132;26;19940;-67
2024/04/18 00:51:42;;;;;;;;;;;;;;;;;;5335186;26;20019;-67
2024/04/18 00:54:08;;;;;;;;;;;;;;;;;;5385480;26;20043;-68
2024/04/18 00:56:33;;;;;;;;;;;;;;;;;;5397995;26;19941;-66
2024/04/18 00:58:59;;;;;;;;;;;;;;;;;;5400262;26;20071;-67
2024/04/18 01:01:25;;;;;;;;;;;;;;;;;;5337058;26;19928;-67
2024/04/18 01:03:51;;;;;;;;;;;;;;;;;;5370103;26;19947;-67
2024/04/18 01:06:16;;;;;;;;;;;;;;;;;;5409893;26;20604;-67
2024/04/18 01:08:44;;;;;;;;;;;;;;;;;;5383332;26;19929;-68
2024/04/18 01:11:09;;;;;;;;;;;;;;;;;;5377788;26;19937;-66
2024/04/18 01:13:38;;;;;;;;;;;;;;;;;;5407367;26;19933;-66
2024/04/18 01:16:03;;;;;;;;;;;;;;;;;;5407822;26;20280;-67
2024/04/18 01:18:29;;;;;;;;;;;;;;;;;;5383786;26;19939;-67
2024/04/18 01:20:54;;;;;;;;;;;;;;;;;;5377058;26;20208;-67
2024/04/18 01:23:20;;;;;;;;;;;;;;;;;;5372774;26;19936;-68
2024/04/18 01:25:48;;;;;;;;;;;;;;;;;;5386546;26;20018;-66
2024/04/18 01:28:13;;;;;;;;;;;;;;;;;;5409776;26;20004;-68
2024/04/18 01:30:39;;;;;;;;;;;;;;;;;;5373972;26;19936;-67
2024/04/18 01:33:04;;;;;;;;;;;;;;;;;;5406526;26;21693;-67
2024/04/18 01:35:30;;;;;;;;;;;;;;;;;;5405455;26;22646;-68
2024/04/18 01:37:55;;;;;;;;;;;;;;;;;;5368613;26;19989;-67
2024/04/18 01:40:21;;;;;;;;;;;;;;;;;;5399980;26;19944;-67
2024/04/18 01:42:49;;;;;;;;;;;;;;;;;;5398357;26;19940;-67
2024/04/18 01:45:14;;;;;;;;;;;;;;;;;;5363296;26;20256;-67
2024/04/18 01:47:40;;;;;;;;;;;;;;;;;;5368772;26;19940;-66
2024/04/18 01:50:05;;;;;;;;;;;;;;;;;;5400430;26;19932;-67
2024/04/18 01:52:30;;;;;;;;;;;;;;;;;;5373282;26;20039;-68
2024/04/18 01:54:56;;;;;;;;;;;;;;;;;;5316334;26;19944;-67
2024/04/18 01:57:21;;;;;;;;;;;;;;;;;;5308526;26;19929;-67
2024/04/18 01:59:50;;;;;;;;;;;;;;;;;;5335865;26;20439;-67
2024/04/18 02:02:15;;;;;;;;;;;;;;;;;;5302228;26;20003;-67
2024/04/18 02:04:41;;;;;;;;;;;;;;;;;;5361169;26;20056;-67
2024/04/18 02:07:06;;;;;;;;;;;;;;;;;;5362518;26;19961;-67
2024/04/18 02:09:32;;;;;;;;;;;;;;;;;;5336994;26;21248;-67
2024/04/18 02:11:57;;;;;;;;;;;;;;;;;;5347523;26;19961;-69
2024/04/18 02:14:22;;;;;;;;;;;;;;;;;;5338264;26;20079;-67
2024/04/18 02:16:48;;;;;;;;;;;;;;;;;;5361616;26;19957;-67
2024/04/18 02:19:13;;;;;;;;;;;;;;;;;;5373185;26;19953;-67
2024/04/18 02:21:42;;;;;;;;;;;;;;;;;;5309280;26;20373;-68
2024/04/18 02:24:09;;;;;;;;;;;;;;;;;;5311044;26;20229;-67
2024/04/18 02:26:35;;;;;;;;;;;;;;;;;;5357782;26;19944;-68
2024/04/18 02:29:00;;;;;;;;;;;;;;;;;;5370396;26;19936;-68
2024/04/18 02:31:28;;;;;;;;;;;;;;;;;;5338007;26;19945;-68
2024/04/18 02:33:56;;;;;;;;;;;;;;;;;;5370018;26;19930;-68
2024/04/18 02:36:24;;;;;;;;;;;;;;;;;;5310255;26;19989;-68
2024/04/18 02:38:49;;;;;;;;;;;;;;;;;;5347957;26;21033;-66
2024/04/18 02:41:15;;;;;;;;;;;;;;;;;;5322923;26;19938;-67
2024/04/18 02:43:41;;;;;;;;;;;;;;;;;;5366271;26;19941;-67
2024/04/18 02:46:06;;;;;;;;;;;;;;;;;;5365900;26;19969;-68
2024/04/18 02:48:32;;;;;;;;;;;;;;;;;;5361910;26;20341;-68
2024/04/18 02:50:58;;;;;;;;;;;;;;;;;;5332574;26;22106;-68
2024/04/18 02:53:23;;;;;;;;;;;;;;;;;;5338432;26;19952;-67
2024/04/18 02:55:49;;;;;;;;;;;;;;;;;;5368616;26;21095;-69
2024/04/18 02:58:14;;;;;;;;;;;;;;;;;;5342772;26;19997;-68
2024/04/18 03:00:44;;;;;;;;;;;;;;;;;;5374859;26;19960;-68
2024/04/18 03:03:09;;;;;;;;;;;;;;;;;;5385842;26;19934;-68
2024/04/18 03:05:35;;;;;;;;;;;;;;;;;;5376870;26;20611;-67
2024/04/18 03:08:00;;;;;;;;;;;;;;;;;;5375673;26;20136;-69
2024/04/18 03:10:26;;;;;;;;;;;;;;;;;;5371932;26;19937;-68
2024/04/18 03:12:51;;;;;;;;;;;;;;;;;;5374267;26;19943;-68
2024/04/18 03:15:17;;;;;;;;;;;;;;;;;;5385605;26;19933;-68
2024/04/18 03:17:43;;;;;;;;;;;;;;;;;;5405726;26;19936;-68
2024/04/18 03:20:08;;;;;;;;;;;;;;;;;;5345612;26;19937;-68
2024/04/18 03:22:34;;;;;;;;;;;;;;;;;;5407435;26;19936;-68
2024/04/18 03:25:02;;;;;;;;;;;;;;;;;;5406476;26;19976;-68
2024/04/18 03:27:30;;;;;;;;;;;;;;;;;;5403435;26;19936;-68
2024/04/18 03:29:56;;;;;;;;;;;;;;;;;;5403569;26;20010;-68
2024/04/18 03:32:23;;;;;;;;;;;;;;;;;;5384117;26;20690;-68
2024/04/18 03:34:51;;;;;;;;;;;;;;;;;;5375377;26;20024;-68
2024/04/18 03:37:16;;;;;;;;;;;;;;;;;;5409103;26;19934;-69
2024/04/18 03:39:42;;;;;;;;;;;;;;;;;;5374621;26;19944;-68
2024/04/18 03:42:07;;;;;;;;;;;;;;;;;;5383827;26;21055;-68
2024/04/18 03:44:33;;;;;;;;;;;;;;;;;;5409982;26;20328;-70
2024/04/18 03:46:58;;;;;;;;;;;;;;;;;;5409445;26;20668;-69
2024/04/18 03:49:24;;;;;;;;;;;;;;;;;;5376418;26;20363;-69
2024/04/18 03:51:49;;;;;;;;;;;;;;;;;;5378209;26;19937;-68
2024/04/18 03:54:15;;;;;;;;;;;;;;;;;;5363716;26;19941;-71
2024/04/18 03:56:40;;;;;;;;;;;;;;;;;;5330587;26;19968;-68
2024/04/18 03:59:05;;;;;;;;;;;;;;;;;;5340072;26;19938;-70
2024/04/18 04:01:31;;;;;;;;;;;;;;;;;;5368971;26;19929;-68
2024/04/18 04:03:56;;;;;;;;;;;;;;;;;;5343055;26;19936;-68
2024/04/18 04:06:22;;;;;;;;;;;;;;;;;;5352585;26;19963;-69
2024/04/18 04:08:48;;;;;;;;;;;;;;;;;;5370693;26;19936;-68
2024/04/18 04:11:13;;;;;;;;;;;;;;;;;;5338895;26;20687;-69
2024/04/18 04:13:41;;;;;;;;;;;;;;;;;;5331733;26;19930;-68
2024/04/18 04:16:07;;;;;;;;;;;;;;;;;;5324661;26;19986;-69
2024/04/18 04:18:33;;;;;;;;;;;;;;;;;;5363058;26;20690;-69
2024/04/18 04:20:58;;;;;;;;;;;;;;;;;;5335332;26;19929;-70
2024/04/18 04:23:26;;;;;;;;;;;;;;;;;;5337949;26;19937;-69
2024/04/18 04:25:51;;;;;;;;;;;;;;;;;;5367529;26;19944;-69
2024/04/18 04:28:17;;;;;;;;;;;;;;;;;;5368833;26;19936;-70
2024/04/18 04:30:42;;;;;;;;;;;;;;;;;;5371370;26;20392;-69
2024/04/18 04:33:08;;;;;;;;;;;;;;;;;;5339334;26;19981;-70
2024/04/18 04:35:33;;;;;;;;;;;;;;;;;;5319662;26;19948;-69
2024/04/18 04:37:58;;;;;;;;;;;;;;;;;;5371634;26;20063;-70
2024/04/18 04:40:27;;;;;;;;;;;;;;;;;;5350551;26;19944;-70
2024/04/18 04:42:52;;;;;;;;;;;;;;;;;;5309883;26;19937;-68
2024/04/18 04:45:17;;;;;;;;;;;;;;;;;;5351629;26;19948;-69
2024/04/18 04:47:43;;;;;;;;;;;;;;;;;;5373041;26;19979;-70
2024/04/18 04:50:08;;;;;;;;;;;;;;;;;;5341476;26;22313;-68
2024/04/18 04:52:33;;;;;;;;;;;;;;;;;;5358386;26;19974;-69
2024/04/18 04:54:58;;;;;;;;;;;;;;;;;;5363751;26;20022;-68
2024/04/18 04:57:24;;;;;;;;;;;;;;;;;;5372699;26;19956;-69
2024/04/18 04:59:49;;;;;;;;;;;;;;;;;;5341273;26;20031;-69
2024/04/18 05:02:14;;;;;;;;;;;;;;;;;;5372112;26;19940;-70
2024/04/18 05:04:39;;;;;;;;;;;;;;;;;;5341355;26;20110;-68
2024/04/18 05:07:07;;;;;;;;;;;;;;;;;;5373084;26;20648;-69
2024/04/18 05:09:32;;;;;;;;;;;;;;;;;;5341839;26;19929;-69
2024/04/18 05:11:58;;;;;;;;;;;;;;;;;;5335775;26;19937;-70
2024/04/18 05:14:23;;;;;;;;;;;;;;;;;;5310107;26;19929;-69
2024/04/18 05:16:48;;;;;;;;;;;;;;;;;;5337445;26;20367;-69
2024/04/18 05:19:14;;;;;;;;;;;;;;;;;;5372130;26;20263;-69
2024/04/18 05:21:39;;;;;;;;;;;;;;;;;;5369882;26;20348;-69
2024/04/18 05:24:04;;;;;;;;;;;;;;;;;;5369687;26;20035;-69
2024/04/18 05:26:32;;;;;;;;;;;;;;;;;;5310434;26;19929;-69
2024/04/18 05:31:44;;;;;;;;;;;;;;;;;;5372101;26;19949;-69
2024/04/18 05:34:10;;;;;;;;;;;;;;;;;;5341212;26;19997;-69
2024/04/18 05:36:38;;;;;;;;;;;;;;;;;;5371339;26;19933;-69
2024/04/18 05:39:04;;;;;;;;;;;;;;;;;;5339450;26;19946;-70
2024/04/18 05:41:32;;;;;;;;;;;;;;;;;;5338237;26;19943;-70
2024/04/18 05:43:57;;;;;;;;;;;;;;;;;;5340005;26;20003;-69
2024/04/18 05:46:23;;;;;;;;;;;;;;;;;;5372259;26;20355;-69
2024/04/18 05:48:48;;;;;;;;;;;;;;;;;;5371415;26;20383;-69
2024/04/18 05:51:14;;;;;;;;;;;;;;;;;;5372759;26;19937;-69
2024/04/18 05:53:39;;;;;;;;;;;;;;;;;;5353308;26;19943;-69
2024/04/18 05:56:05;;;;;;;;;;;;;;;;;;5344929;26;20147;-69
2024/04/18 05:58:32;;;;;;;;;;;;;;;;;;5378842;26;19936;-69
2024/04/18 06:00:57;;;;;;;;;;;;;;;;;;5407344;26;19935;-68
2024/04/18 06:03:24;;;;;;;;;;;;;;;;;;5405137;26;20602;-69
2024/04/18 06:05:49;;;;;;;;;;;;;;;;;;5364075;26;19965;-69
2024/04/18 06:08:15;;;;;;;;;;;;;;;;;;5391489;26;19953;-68
2024/04/18 06:10:40;;;;;;;;;;;;;;;;;;5391819;26;20026;-68
2024/04/18 06:13:07;;;;;;;;;;;;;;;;;;5340958;26;19940;-67
2024/04/18 06:15:33;;;;;;;;;;;;;;;;;;5371409;26;19937;-68
2024/04/18 06:17:58;;;;;;;;;;;;;;;;;;5374343;26;20329;-67
2024/04/18 06:20:24;;;;;;;;;;;;;;;;;;5383023;26;20985;-67
2024/04/18 06:22:49;;;;;;;;;;;;;;;;;;5410104;26;19993;-67
2024/04/18 06:25:16;;;;;;;;;;;;;;;;;;5385244;26;20064;-66
2024/04/18 06:27:42;;;;;;;;;;;;;;;;;;5407771;26;19964;-66
2024/04/18 06:30:07;;;;;;;;;;;;;;;;;;5407139;26;20678;-65
2024/04/18 06:32:32;;;;;;;;;;;;;;;;;;5370984;26;19947;-65
2024/04/18 06:34:58;;;;;;;;;;;;;;;;;;5374135;26;20217;-66
2024/04/18 06:37:23;;;;;;;;;;;;;;;;;;5382080;26;19940;-66
2024/04/18 06:39:52;;;;;;;;;;;;;;;;;;5407748;26;19941;-67
2024/04/18 06:42:17;;;;;;;;;;;;;;;;;;5371427;26;19936;-66
2024/04/18 06:44:45;;;;;;;;;;;;;;;;;;5377572;26;20511;-67
2024/04/18 06:47:10;;;;;;;;;;;;;;;;;;5367571;26;19949;-66
2024/04/18 06:49:36;;;;;;;;;;;;;;;;;;5377269;26;20547;-67
2024/04/18 06:52:04;;;;;;;;;;;;;;;;;;5371096;26;19940;-67
2024/04/18 06:54:30;;;;;;;;;;;;;;;;;;5366468;26;19929;-67
2024/04/18 06:56:55;;;;;;;;;;;;;;;;;;5338268;26;19978;-66
2024/04/18 06:59:20;;;;;;;;;;;;;;;;;;5340094;26;21067;-67
2024/04/18 07:01:46;;;;;;;;;;;;;;;;;;5338609;26;20371;-67
2024/04/18 07:04:14;;;;;;;;;;;;;;;;;;5344956;26;19957;-65
2024/04/18 07:06:41;;;;;;;;;;;;;;;;;;5369614;26;20034;-66
2024/04/18 07:09:06;;;;;;;;;;;;;;;;;;5371659;26;19941;-66
2024/04/18 07:11:32;;;;;;;;;;;;;;;;;;5341036;26;20684;-66
2024/04/18 07:13:57;;;;;;;;;;;;;;;;;;5311083;26;19937;-67
2024/04/18 07:16:23;;;;;;;;;;;;;;;;;;5338099;26;19929;-67
2024/04/18 07:18:51;;;;;;;;;;;;;;;;;;5342031;26;19937;-67
2024/04/18 07:21:16;;;;;;;;;;;;;;;;;;5322280;26;20844;-67
2024/04/18 07:23:44;;;;;;;;;;;;;;;;;;5341201;26;19953;-67
2024/04/18 07:26:10;;;;;;;;;;;;;;;;;;5310418;26;19938;-67
2024/04/18 07:28:41;;;;;;;;;;;;;;;;;;5338632;26;21065;-68
2024/04/18 07:31:06;;;;;;;;;;;;;;;;;;5339594;26;21053;-66
2024/04/18 07:33:34;;;;;;;;;;;;;;;;;;5366917;26;19936;-66
2024/04/18 07:36:02;;;;;;;;;;;;;;;;;;5339598;26;20307;-67
2024/04/18 07:38:28;;;;;;;;;;;;;;;;;;5309532;26;19937;-67
2024/04/18 07:40:53;;;;;;;;;;;;;;;;;;5352729;26;19937;-67
2024/04/18 07:43:18;;;;;;;;;;;;;;;;;;5332982;26;20051;-67
2024/04/18 07:45:44;;;;;;;;;;;;;;;;;;5310435;26;19932;-67
2024/04/18 07:48:09;;;;;;;;;;;;;;;;;;5337833;26;19940;-68
2024/04/18 07:50:38;;;;;;;;;;;;;;;;;;5339905;26;19941;-68
2024/04/18 07:53:03;;;;;;;;;;;;;;;;;;5370553;26;19945;-68
2024/04/18 07:55:31;;;;;;;;;;;;;;;;;;5363497;26;19933;-67
2024/04/18 07:57:57;;;;;;;;;;;;;;;;;;5366577;26;19964;-67
2024/04/18 08:00:22;;;;;;;;;;;;;;;;;;5364640;26;19929;-67
2024/04/18 08:02:49;;;;;;;;;;;;;;;;;;5361108;26;19934;-67
2024/04/18 08:05:14;;;;;;;;;;;;;;;;;;5330737;26;20246;-68
2024/04/18 08:07:42;;;;;;;;;;;;;;;;;;5343411;26;19929;-70
2024/04/18 08:10:07;;;;;;;;;;;;;;;;;;5372155;26;19937;-68
2024/04/18 08:12:38;;;;;;;;;;;;;;;;;;5370321;26;19937;-68
2024/04/18 08:15:04;;;;;;;;;;;;;;;;;;5369173;26;20486;-69
2024/04/18 08:17:31;;;;;;;;;;;;;;;;;;5356034;26;19937;-69
2024/04/18 08:19:57;;;;;;;;;;;;;;;;;;5342331;26;19945;-69
2024/04/18 08:22:25;;;;;;;;;;;;;;;;;;5372209;26;19936;-69
2024/04/18 08:24:53;;;;;;;;;;;;;;;;;;5366253;26;20004;-68
2024/04/18 08:27:18;;;;;;;;;;;;;;;;;;5366740;26;19941;-68
2024/04/18 08:29:46;;;;;;;;;;;;;;;;;;5373322;26;19941;-67
2024/04/18 08:32:12;;;;;;;;;;;;;;;;;;5371387;26;20051;-68
2024/04/18 08:34:37;;;;;;;;;;;;;;;;;;5371377;26;20216;-67
2024/04/18 08:37:05;;;;;;;;;;;;;;;;;;5369511;26;19953;-66
2024/04/18 08:39:31;;;;;;;;;;;;;;;;;;5372240;26;19999;-68
2024/04/18 08:41:59;;;;;;;;;;;;;;;;;;5364114;26;20268;-68
2024/04/18 08:44:24;;;;;;;;;;;;;;;;;;5328927;26;19944;-68
2024/04/18 08:46:52;;;;;;;;;;;;;;;;;;5374945;26;20073;-68
2024/04/18 08:49:17;;;;;;;;;;;;;;;;;;5372383;26;19968;-69
2024/04/18 08:51:43;;;;;;;;;;;;;;;;;;5321893;26;21050;-68
2024/04/18 08:54:09;;;;;;;;;;;;;;;;;;5371325;26;20012;-69
2024/04/18 08:56:35;;;;;;;;;;;;;;;;;;5349894;26;20930;-68
2024/04/18 08:59:00;;;;;;;;;;;;;;;;;;5376281;26;20018;-68
2024/04/18 09:01:28;;;;;;;;;;;;;;;;;;5407304;26;20493;-67
2024/04/18 09:03:53;;;;;;;;;;;;;;;;;;5378385;26;19936;-69
2024/04/18 09:06:22;;;;;;;;;;;;;;;;;;5408503;26;19948;-69
2024/04/18 09:08:50;;;;;;;;;;;;;;;;;;5375283;26;20620;-69
2024/04/18 09:11:15;;;;;;;;;;;;;;;;;;5376279;26;19937;-69
2024/04/18 09:13:41;;;;;;;;;;;;;;;;;;5381337;26;20206;-67
2024/04/18 09:16:09;;;;;;;;;;;;;;;;;;5374404;26;19933;-67
2024/04/18 09:18:34;;;;;;;;;;;;;;;;;;5406735;26;19944;-67
2024/04/18 09:20:59;;;;;;;;;;;;;;;;;;5346639;26;20600;-68
2024/04/18 09:23:24;;;;;;;;;;;;;;;;;;5375109;26;20494;-69
2024/04/18 09:25:53;;;;;;;;;;;;;;;;;;5344410;26;19937;-68
2024/04/18 09:28:19;;;;;;;;;;;;;;;;;;5377046;26;19940;-68
2024/04/18 09:30:48;;;;;;;;;;;;;;;;;;5388113;26;19936;-68
2024/04/18 09:33:16;;;;;;;;;;;;;;;;;;5409001;26;19932;-68
2024/04/18 09:35:46;;;;;;;;;;;;;;;;;;5375117;26;19932;-68
2024/04/18 09:38:11;;;;;;;;;;;;;;;;;;5375509;26;22617;-69
2024/04/18 09:40:37;;;;;;;;;;;;;;;;;;5344434;26;19937;-68
2024/04/18 09:43:02;;;;;;;;;;;;;;;;;;5404589;26;19944;-68
2024/04/18 09:45:30;;;;;;;;;;;;;;;;;;5407579;26;19929;-69
2024/04/18 09:47:55;;;;;;;;;;;;;;;;;;5405180;26;19955;-71
2024/04/18 09:50:23;;;;;;;;;;;;;;;;;;5373421;26;20599;-68
2024/04/18 09:52:48;;;;;;;;;;;;;;;;;;5407909;26;19928;-70
2024/04/18 09:55:16;;;;;;;;;;;;;;;;;;5358920;26;20401;-68
2024/04/18 09:57:41;;;;;;;;;;;;;;;;;;5339685;26;19984;-68
2024/04/18 10:00:07;;;;;;;;;;;;;;;;;;5348288;26;19944;-68
2024/04/18 10:02:35;;;;;;;;;;;;;;;;;;5369888;26;19945;-67
2024/04/18 10:05:03;;;;;;;;;;;;;;;;;;5371540;26;19936;-67
2024/04/18 10:07:29;;;;;;;;;;;;;;;;;;5337687;26;20501;-68
2024/04/18 10:09:54;;;;;;;;;;;;;;;;;;5356837;26;19944;-67
2024/04/18 10:12:21;;;;;;;;;;;;;;;;;;5371412;26;19938;-67
2024/04/18 10:14:46;;;;;;;;;;;;;;;;;;5345187;26;19948;-68
2024/04/18 10:17:12;;;;;;;;;;;;;;;;;;5336918;26;19944;-68
2024/04/18 10:19:37;;;;;;;;;;;;;;;;;;5372345;26;21133;-68
2024/04/18 10:22:06;;;;;;;;;;;;;;;;;;5374635;26;19937;-67
2024/04/18 10:24:32;;;;;;;;;;;;;;;;;;5322083;26;19929;-68
2024/04/18 10:27:00;;;;;;;;;;;;;;;;;;5339170;26;20360;-68
2024/04/18 10:29:26;;;;;;;;;;;;;;;;;;5362362;26;20599;-67
2024/04/18 10:31:52;;;;;;;;;;;;;;;;;;5337384;26;19940;-68
2024/04/18 10:34:17;;;;;;;;;;;;;;;;;;5340885;26;21218;-67
2024/04/18 10:36:42;;;;;;;;;;;;;;;;;;5326980;26;19937;-68
2024/04/18 10:39:07;;;;;;;;;;;;;;;;;;5337484;26;19937;-67
2024/04/18 10:41:33;;;;;;;;;;;;;;;;;;5370562;26;19979;-68
2024/04/18 10:44:01;;;;;;;;;;;;;;;;;;5308330;26;19944;-67
2024/04/18 10:46:26;;;;;;;;;;;;;;;;;;5334239;26;19945;-67
2024/04/18 10:48:52;;;;;;;;;;;;;;;;;;5313440;26;20002;-68
2024/04/18 10:51:18;;;;;;;;;;;;;;;;;;5310917;26;20932;-68
2024/04/18 10:53:45;;;;;;;;;;;;;;;;;;5374293;26;19969;-68
2024/04/18 10:56:10;;;;;;;;;;;;;;;;;;5350048;26;19944;-67
2024/04/18 10:58:36;;;;;;;;;;;;;;;;;;5372650;26;20002;-68
2024/04/18 11:01:02;;;;;;;;;;;;;;;;;;5372433;26;20609;-68
2024/04/18 11:03:27;;;;;;;;;;;;;;;;;;5406647;26;19936;-67
2024/04/18 11:05:53;;;;;;;;;;;;;;;;;;5373197;26;19936;-68
2024/04/18 11:08:18;;;;;;;;;;;;;;;;;;5372710;26;19976;-67
2024/04/18 11:10:44;;;;;;;;;;;;;;;;;;5372309;26;22520;-69
2024/04/18 11:13:13;;;;;;;;;;;;;;;;;;5404593;26;19932;-67
2024/04/18 11:15:38;;;;;;;;;;;;;;;;;;5349383;26;19936;-68
2024/04/18 11:18:06;;;;;;;;;;;;;;;;;;5369654;26;20261;-67
2024/04/18 11:20:31;;;;;;;;;;;;;;;;;;5405956;26;19947;-67
2024/04/18 11:22:57;;;;;;;;;;;;;;;;;;5342525;26;20501;-66
2024/04/18 11:25:22;;;;;;;;;;;;;;;;;;5404534;26;19929;-68
2024/04/18 11:27:50;;;;;;;;;;;;;;;;;;5406678;26;20304;-66
2024/04/18 11:30:19;;;;;;;;;;;;;;;;;;5371699;26;19928;-67
2024/04/18 11:32:44;;;;;;;;;;;;;;;;;;5370783;26;20324;-68
2024/04/18 11:35:12;;;;;;;;;;;;;;;;;;5370766;26;19935;-68
2024/04/18 11:37:38;;;;;;;;;;;;;;;;;;5371553;26;19937;-67
2024/04/18 11:40:03;;;;;;;;;;;;;;;;;;5370049;26;19940;-67
2024/04/18 11:42:28;;;;;;;;;;;;;;;;;;5379430;26;19936;-67
2024/04/18 11:44:54;;;;;;;;;;;;;;;;;;5375814;26;19936;-71
2024/04/18 11:47:19;;;;;;;;;;;;;;;;;;5382196;26;19936;-67
2024/04/18 11:49:44;;;;;;;;;;;;;;;;;;5408964;26;20051;-70
2024/04/18 11:52:12;;;;;;;;;;;;;;;;;;5411947;26;20341;-68
2024/04/18 11:54:40;;;;;;;;;;;;;;;;;;5375488;26;19973;-68
2024/04/18 11:57:06;;;;;;;;;;;;;;;;;;5377623;26;19936;-67
2024/04/18 11:59:37;;;;;;;;;;;;;;;;;;5387226;26;19937;-68
2024/04/18 12:02:04;;;;;;;;;;;;;;;;;;5408194;26;20048;-66
2024/04/18 12:04:30;;;;;;;;;;;;;;;;;;5374737;26;19937;-68
2024/04/18 12:06:55;;;;;;;;;;;;;;;;;;5374446;26;20424;-68
2024/04/18 12:09:23;;;;;;;;;;;;;;;;;;5344933;26;19945;-70
2024/04/18 12:11:49;;;;;;;;;;;;;;;;;;5377835;26;19928;-67
2024/04/18 12:14:14;;;;;;;;;;;;;;;;;;5380230;26;19936;-68
2024/04/18 12:16:40;;;;;;;;;;;;;;;;;;5375157;26;19940;-69
2024/04/18 12:19:05;;;;;;;;;;;;;;;;;;5375238;26;19964;-68
2024/04/18 12:21:30;;;;;;;;;;;;;;;;;;5387148;26;19948;-68
2024/04/18 12:23:56;;;;;;;;;;;;;;;;;;5346785;26;20446;-68
2024/04/18 12:26:21;;;;;;;;;;;;;;;;;;5374651;26;19932;-67
2024/04/18 12:28:46;;;;;;;;;;;;;;;;;;5406715;26;19937;-69
2024/04/18 12:31:12;;;;;;;;;;;;;;;;;;5411092;26;19928;-68
2024/04/18 12:33:40;;;;;;;;;;;;;;;;;;5374806;26;19929;-69
2024/04/18 12:36:08;;;;;;;;;;;;;;;;;;5409360;26;19944;-69
2024/04/18 12:38:36;;;;;;;;;;;;;;;;;;5389463;26;20237;-70
2024/04/18 12:41:01;;;;;;;;;;;;;;;;;;5408486;26;19970;-69
2024/04/18 12:43:29;;;;;;;;;;;;;;;;;;5372614;26;20439;-70
2024/04/18 12:46:00;;;;;;;;;;;;;;;;;;5389128;26;19940;-71
2024/04/18 12:48:25;;;;;;;;;;;;;;;;;;5408576;26;19939;-70
2024/04/18 12:50:51;;;;;;;;;;;;;;;;;;5409875;26;19998;-72
2024/04/18 12:53:16;;;;;;;;;;;;;;;;;;5407698;26;20064;-71
2024/04/18 12:55:44;;;;;;;;;;;;;;;;;;5359162;26;19930;-70
2024/04/18 12:58:09;;;;;;;;;;;;;;;;;;5340207;26;19941;-72
2024/04/18 13:00:34;;;;;;;;;;;;;;;;;;5328092;26;19949;-68
2024/04/18 13:03:00;;;;;;;;;;;;;;;;;;5308431;26;19952;-69
2024/04/18 13:05:26;;;;;;;;;;;;;;;;;;5304359;26;19964;-69
2024/04/18 13:07:51;;;;;;;;;;;;;;;;;;5344809;26;19941;-69
2024/04/18 13:10:17;;;;;;;;;;;;;;;;;;5339068;26;19952;-69
2024/04/18 13:12:45;;;;;;;;;;;;;;;;;;5338105;26;19933;-67
2024/04/18 13:15:10;;;;;;;;;;;;;;;;;;5322027;26;19938;-68
2024/04/18 13:17:36;;;;;;;;;;;;;;;;;;5371107;26;20257;-69
2024/04/18 13:20:02;;;;;;;;;;;;;;;;;;5369454;26;19968;-68
2024/04/18 13:22:27;;;;;;;;;;;;;;;;;;5309308;26;19937;-69
2024/04/18 13:24:52;;;;;;;;;;;;;;;;;;5359505;26;21117;-70
2024/04/18 13:27:18;;;;;;;;;;;;;;;;;;5340478;26;20334;-69
2024/04/18 13:29:43;;;;;;;;;;;;;;;;;;5310231;26;20039;-70
2024/04/18 13:32:08;;;;;;;;;;;;;;;;;;5347831;26;19941;-75
2024/04/18 13:34:34;;;;;;;;;;;;;;;;;;5306372;26;20100;-68
2024/04/18 13:36:59;;;;;;;;;;;;;;;;;;5361996;26;19929;-68
2024/04/18 13:39:24;;;;;;;;;;;;;;;;;;5342518;26;20285;-71
2024/04/18 13:41:50;;;;;;;;;;;;;;;;;;5336538;26;20000;-70
2024/04/18 13:44:15;;;;;;;;;;;;;;;;;;5331974;26;19990;-73
2024/04/18 13:46:41;;;;;;;;;;;;;;;;;;5340087;26;19943;-74
2024/04/18 13:49:06;;;;;;;;;;;;;;;;;;5373618;26;19945;-69
2024/04/18 13:51:31;;;;;;;;;;;;;;;;;;5310934;26;20052;-71
2024/04/18 13:53:57;;;;;;;;;;;;;;;;;;5350029;26;19928;-68
2024/04/18 13:56:22;;;;;;;;;;;;;;;;;;5370320;26;19995;-69
2024/04/18 13:58:50;;;;;;;;;;;;;;;;;;5377809;26;20046;-70
2024/04/18 14:01:16;;;;;;;;;;;;;;;;;;5316634;26;19980;-74
2024/04/18 14:03:41;;;;;;;;;;;;;;;;;;5330791;26;20048;-71
2024/04/18 14:06:07;;;;;;;;;;;;;;;;;;5318532;26;19945;-69
2024/04/18 14:08:35;;;;;;;;;;;;;;;;;;5354112;26;19930;-69
2024/04/18 14:11:00;;;;;;;;;;;;;;;;;;5377221;26;20216;-71
2024/04/18 14:13:29;;;;;;;;;;;;;;;;;;5343267;26;20224;-72
2024/04/18 14:18:48;;;;;;;;;;;;;;;;;;5361780;26;19934;-70
2024/04/18 14:21:13;;;;;;;;;;;;;;;;;;5373136;26;19929;-70
2024/04/18 14:23:41;;;;;;;;;;;;;;;;;;5346847;26;19941;-70
2024/04/18 14:26:09;;;;;;;;;;;;;;;;;;5375473;26;20029;-73
2024/04/18 14:28:40;;;;;;;;;;;;;;;;;;5342408;26;19944;-79
2024/04/18 14:31:05;;;;;;;;;;;;;;;;;;5325190;26;19961;-72
2024/04/18 14:33:33;;;;;;;;;;;;;;;;;;5343892;26;19937;-72
2024/04/18 14:36:00;;;;;;;;;;;;;;;;;;5354960;26;19945;-71
2024/04/18 14:38:26;;;;;;;;;;;;;;;;;;5373625;26;19948;-71
2024/04/18 14:40:52;;;;;;;;;;;;;;;;;;5373469;26;19937;-69
2024/04/18 14:43:20;;;;;;;;;;;;;;;;;;5344174;26;19929;-70
2024/04/18 14:45:45;;;;;;;;;;;;;;;;;;5367694;26;19945;-71
2024/04/18 14:48:10;;;;;;;;;;;;;;;;;;5330461;26;19936;-71
2024/04/18 14:50:38;;;;;;;;;;;;;;;;;;5324921;26;20305;-74
2024/04/18 14:53:04;;;;;;;;;;;;;;;;;;5343584;26;20001;-70
2024/04/18 14:55:29;;;;;;;;;;;;;;;;;;5342184;26;19937;-74
2024/04/18 14:57:55;;;;;;;;;;;;;;;;;;5342098;26;20507;-70
2024/04/18 15:00:23;;;;;;;;;;;;;;;;;;5313114;26;19929;-70
2024/04/18 15:02:49;;;;;;;;;;;;;;;;;;5352443;26;20485;-68
2024/04/18 15:05:15;;;;;;;;;;;;;;;;;;5355019;26;19997;-71
2024/04/18 15:07:41;;;;;;;;;;;;;;;;;;5339094;26;19936;-70
2024/04/18 15:10:06;;;;;;;;;;;;;;;;;;5339494;26;19930;-70
2024/04/18 15:12:32;;;;;;;;;;;;;;;;;;5369891;26;19948;-71
2024/04/18 15:15:00;;;;;;;;;;;;;;;;;;5366157;26;19967;-72
2024/04/18 15:17:28;;;;;;;;;;;;;;;;;;5374884;26;19936;-74
2024/04/18 15:19:55;;;;;;;;;;;;;;;;;;5351697;26;19962;-71
2024/04/18 15:22:23;;;;;;;;;;;;;;;;;;5341774;26;19993;-73
2024/04/18 15:24:52;;;;;;;;;;;;;;;;;;5346898;26;19937;-71
2024/04/18 15:27:18;;;;;;;;;;;;;;;;;;5342482;26;19929;-70
2024/04/18 15:29:44;;;;;;;;;;;;;;;;;;5312570;26;19935;-70
2024/04/18 15:32:12;;;;;;;;;;;;;;;;;;5343182;26;20047;-73
2024/04/18 15:34:40;;;;;;;;;;;;;;;;;;5346276;26;19941;-71
2024/04/18 15:37:05;;;;;;;;;;;;;;;;;;5312734;26;19945;-78
2024/04/18 15:39:31;;;;;;;;;;;;;;;;;;5340093;26;19929;-74
2024/04/18 15:41:58;;;;;;;;;;;;;;;;;;5342309;26;19947;-72
2024/04/18 15:44:24;;;;;;;;;;;;;;;;;;5371993;26;19961;-73
2024/04/18 15:46:49;;;;;;;;;;;;;;;;;;5343247;26;19947;-71
2024/04/18 15:49:15;;;;;;;;;;;;;;;;;;5347525;26;19937;-72
2024/04/18 15:51:40;;;;;;;;;;;;;;;;;;5372512;26;20338;-72
2024/04/18 15:54:05;;;;;;;;;;;;;;;;;;5349541;26;21559;-73
2024/04/18 15:56:31;;;;;;;;;;;;;;;;;;5408469;26;19937;-71
2024/04/18 15:58:56;;;;;;;;;;;;;;;;;;5373172;26;19936;-70
2024/04/18 16:01:21;;;;;;;;;;;;;;;;;;5384457;26;19941;-72
2024/04/18 16:03:50;;;;;;;;;;;;;;;;;;5382138;26;20003;-73
2024/04/18 16:06:15;;;;;;;;;;;;;;;;;;5374066;26;19952;-71
2024/04/18 16:08:43;;;;;;;;;;;;;;;;;;5341454;26;19929;-73
2024/04/18 16:11:09;;;;;;;;;;;;;;;;;;5404856;26;19986;-73
2024/04/18 16:13:37;;;;;;;;;;;;;;;;;;5342699;26;19929;-72
2024/04/18 16:16:02;;;;;;;;;;;;;;;;;;5382042;26;19993;-73
2024/04/18 16:18:38;;;;;;;;;;;;;;;;;;5405245;26;19998;-76
2024/04/18 16:21:32;;;;;;;;;;;;;;;;;;5381103;26;20166;-74
2024/04/18 16:24:07;;;;;;;;;;;;;;;;;;5404171;26;19956;-72
2024/04/18 16:27:02;;;;;;;;;;;;;;;;;;5380010;26;19967;-71
2024/04/18 16:32:55;;;;;;;;;;;;;;;;;;5378476;26;19937;-75
2024/04/18 16:35:25;;;;;;;;;;;;;;;;;;5401431;26;19952;-74
2024/04/18 16:38:43;;;;;;;;;;;;;;;;;;5382662;26;19944;-73
2024/04/18 16:41:09;;;;;;;;;;;;;;;;;;5411194;26;19997;-72
2024/04/18 16:43:47;;;;;;;;;;;;;;;;;;5377122;26;19929;-72
2024/04/18 16:46:17;;;;;;;;;;;;;;;;;;5376790;26;19929;-76
2024/04/18 16:49:05;;;;;;;;;;;;;;;;;;5371207;26;20483;-72
2024/04/18 16:51:40;;;;;;;;;;;;;;;;;;5375818;26;20006;-73